Time;durP1;ratioP1;P1;durP2;ratioP2;P2;SDS_P1;SDS_P2;PMS_P1;PMS_P2;Temp;Humidity;BMP_temperature;BMP_pressure;BME280_temperature;BME280_humidity;BME280_pressure;Samples;Min_cycle;Max_cycle;Signal;HPM_P1;HPM_P2
2023/04/05 00:02:12;;;;;;;1.60;1.60;;;17.80;62.80;;;;;;5102143;27;44036;-69
2023/04/05 00:04:49;;;;;;;1.50;1.50;;;17.80;62.60;;;;;;5080985;27;45468;-70
2023/04/05 00:07:17;;;;;;;1.63;1.63;;;17.80;62.70;;;;;;5095745;27;43941;-71
2023/04/05 00:09:46;;;;;;;1.70;1.70;;;17.70;62.80;;;;;;5103554;27;43576;-70
2023/04/05 00:12:14;;;;;;;1.53;1.53;;;17.70;62.90;;;;;;5092557;27;43941;-72
2023/04/05 00:14:42;;;;;;;1.50;1.50;;;17.70;63.10;;;;;;5089697;27;44980;-71
2023/04/05 00:17:12;;;;;;;1.47;1.47;;;17.60;63.20;;;;;;5074751;27;43427;-70
2023/04/05 00:19:41;;;;;;;1.40;1.40;;;17.60;63.00;;;;;;5105271;27;43482;-71
2023/04/05 00:22:10;;;;;;;1.60;1.60;;;17.70;63.20;;;;;;5105682;27;43848;-72
2023/04/05 00:24:40;;;;;;;1.80;1.80;;;17.60;63.20;;;;;;5107106;27;43347;-72
2023/04/05 00:27:08;;;;;;;1.40;1.40;;;17.60;63.20;;;;;;5097450;27;43928;-71
2023/04/05 00:29:36;;;;;;;1.60;1.60;;;17.60;63.30;;;;;;5100002;27;43888;-69
2023/04/05 00:32:04;;;;;;;1.60;1.60;;;17.60;63.40;;;;;;5102118;27;43766;-70
2023/04/05 00:34:34;;;;;;;1.60;1.60;;;17.60;63.20;;;;;;5079104;27;45259;-70
2023/04/05 00:37:02;;;;;;;1.60;1.60;;;17.60;63.20;;;;;;5098304;27;43875;-72
2023/04/05 00:39:30;;;;;;;1.67;1.67;;;17.60;63.30;;;;;;5100385;27;43844;-70
2023/04/05 00:41:58;;;;;;;1.70;1.60;;;17.60;63.40;;;;;;5097025;27;43913;-71
2023/04/05 00:44:27;;;;;;;1.60;1.60;;;17.60;63.40;;;;;;5089002;27;44774;-70
2023/04/05 00:46:55;;;;;;;1.70;1.70;;;17.50;63.40;;;;;;5085034;27;43864;-70
2023/04/05 00:49:24;;;;;;;1.60;1.60;;;17.60;63.40;;;;;;5103514;27;43465;-71
2023/04/05 00:51:53;;;;;;;1.67;1.67;;;17.70;63.30;;;;;;5096512;27;43939;-70
2023/04/05 00:54:21;;;;;;;1.70;1.70;;;17.80;62.90;;;;;;5086464;27;45052;-70
2023/04/05 00:56:51;;;;;;;1.90;1.90;;;17.80;62.50;;;;;;5077712;27;43479;-70
2023/04/05 00:59:20;;;;;;;1.40;1.40;;;17.80;62.40;;;;;;5103025;27;43512;-71
2023/04/05 01:01:54;;;;;;;1.50;1.50;;;17.80;62.60;;;;;;5082657;27;45772;-70
2023/04/05 01:04:22;;;;;;;1.70;1.70;;;17.70;62.70;;;;;;5083244;27;43530;-70
2023/04/05 01:06:59;;;;;;;1.60;1.60;;;17.80;62.70;;;;;;5077596;27;43411;-71
2023/04/05 01:09:36;;;;;;;1.70;1.70;;;17.70;62.70;;;;;;5100643;27;43382;-71
2023/04/05 01:12:06;;;;;;;1.43;1.43;;;17.70;62.90;;;;;;5087968;27;45849;-71
2023/04/05 01:14:44;;;;;;;1.50;1.50;;;17.70;63.00;;;;;;5098797;27;43368;-71
2023/04/05 01:17:12;;;;;;;1.50;1.50;;;17.60;63.00;;;;;;5073821;27;43434;-71
2023/04/05 01:19:40;;;;;;;1.70;1.70;;;17.60;63.10;;;;;;5099381;27;43415;-70
2023/04/05 01:22:30;;;;;;;1.50;1.50;;;17.60;62.90;;;;;;5076324;27;45298;-70
2023/04/05 01:25:10;;;;;;;1.50;1.50;;;17.60;63.00;;;;;;5104795;27;43418;-71
2023/04/05 01:27:50;;;;;;;1.40;1.40;;;17.60;63.10;;;;;;5097757;27;43391;-72
2023/04/05 01:30:20;;;;;;;1.33;1.33;;;17.60;63.20;;;;;;5083494;27;43677;-72
2023/04/05 01:32:55;;;;;;;1.50;1.50;;;17.60;63.20;;;;;;5072083;27;45867;-71
2023/04/05 01:35:30;;;;;;;1.90;1.90;;;17.60;63.20;;;;;;5102145;27;43468;-70
2023/04/05 01:38:00;;;;;;;1.70;1.70;;;17.70;62.90;;;;;;5097279;27;43452;-70
2023/04/05 01:40:28;;;;;;;1.57;1.57;;;17.70;62.60;;;;;;5088993;27;43968;-72
2023/04/05 01:42:56;;;;;;;1.50;1.50;;;17.70;62.70;;;;;;5086001;27;46196;-71
2023/04/05 01:45:25;;;;;;;1.50;1.50;;;17.70;62.80;;;;;;5086900;27;44843;-70
2023/04/05 01:47:53;;;;;;;1.53;1.53;;;17.70;62.90;;;;;;5100599;27;43352;-70
2023/04/05 01:50:21;;;;;;;1.80;1.80;;;17.60;62.80;;;;;;5097479;27;43447;-70
2023/04/05 01:52:51;;;;;;;1.80;1.80;;;17.60;62.70;;;;;;5084372;27;43840;-69
2023/04/05 01:55:18;;;;;;;1.50;1.50;;;17.60;62.90;;;;;;5103367;27;43412;-70
2023/04/05 01:57:46;;;;;;;1.60;1.60;;;17.60;62.90;;;;;;5098636;27;43420;-70
2023/04/05 02:00:15;;;;;;;1.70;1.70;;;17.60;63.10;;;;;;5100839;27;43864;-72
2023/04/05 02:02:45;;;;;;;1.60;1.60;;;17.60;63.10;;;;;;5104978;27;43846;-71
2023/04/05 02:05:13;;;;;;;1.57;1.57;;;17.60;63.20;;;;;;5088824;27;43978;-70
2023/04/05 02:07:42;;;;;;;1.57;1.57;;;17.60;63.00;;;;;;5085568;27;43416;-71
2023/04/05 02:10:10;;;;;;;1.90;1.90;;;17.60;63.10;;;;;;5098983;27;43496;-71
2023/04/05 02:12:39;;;;;;;1.60;1.50;;;17.60;63.10;;;;;;5088024;27;45986;-71
2023/04/05 02:15:08;;;;;;;1.60;1.60;;;17.50;63.20;;;;;;5074671;27;45119;-70
2023/04/05 02:17:38;;;;;;;1.63;1.63;;;17.50;63.20;;;;;;5078005;27;43436;-71
2023/04/05 02:20:11;;;;;;;2.10;2.10;;;17.60;63.30;;;;;;5077994;27;44062;-70
2023/04/05 02:22:39;;;;;;;1.70;1.70;;;17.70;63.10;;;;;;5102819;27;43873;-70
2023/04/05 02:25:08;;;;;;;1.60;1.60;;;17.70;62.70;;;;;;5101103;27;43543;-71
2023/04/05 02:27:38;;;;;;;1.60;1.60;;;17.80;62.40;;;;;;5097177;27;43440;-72
2023/04/05 02:30:07;;;;;;;1.70;1.70;;;17.80;62.40;;;;;;5085970;27;43514;-71
2023/04/05 02:32:35;;;;;;;1.80;1.80;;;17.70;62.50;;;;;;5097963;27;43690;-72
2023/04/05 02:35:03;;;;;;;1.73;1.73;;;17.70;62.40;;;;;;5098289;27;43305;-70
2023/04/05 02:37:33;;;;;;;1.60;1.60;;;17.70;62.40;;;;;;5087500;27;43434;-71
2023/04/05 02:40:01;;;;;;;1.80;1.80;;;17.70;62.60;;;;;;5088217;27;43776;-70
2023/04/05 02:42:29;;;;;;;1.83;1.83;;;17.70;62.70;;;;;;5080223;27;44163;-70
2023/04/05 02:44:56;;;;;;;1.77;1.77;;;17.60;62.80;;;;;;5087044;27;44690;-70
2023/04/05 02:47:25;;;;;;;1.80;1.80;;;17.60;62.90;;;;;;5074929;27;43835;-72
2023/04/05 02:49:57;;;;;;;2.00;2.00;;;17.60;62.90;;;;;;5082173;28;43461;-69
2023/04/05 02:52:31;;;;;;;1.93;1.93;;;17.60;62.80;;;;;;5086385;27;45743;-69
2023/04/05 02:55:00;;;;;;;1.53;1.53;;;17.60;63.00;;;;;;5082447;27;43435;-70
2023/04/05 02:57:31;;;;;;;1.80;1.80;;;17.60;63.00;;;;;;5077974;27;43430;-71
2023/04/05 03:00:18;;;;;;;1.83;1.83;;;17.60;63.10;;;;;;5085469;27;43465;-69
2023/04/05 03:02:46;;;;;;;1.90;1.90;;;17.50;63.80;;;;;;5099949;27;43868;-72
2023/04/05 03:05:17;;;;;;;1.70;1.70;;;17.60;63.20;;;;;;5079408;27;45151;-70
2023/04/05 03:07:50;;;;;;;1.97;1.97;;;17.70;63.00;;;;;;5085664;27;43497;-69
2023/04/05 03:10:23;;;;;;;1.80;1.80;;;17.70;62.50;;;;;;5080978;28;43459;-71
2023/04/05 03:12:57;;;;;;;1.73;1.73;;;17.70;62.30;;;;;;5085780;27;44051;-70
2023/04/05 03:15:27;;;;;;;1.80;1.80;;;17.70;62.40;;;;;;5082939;27;44604;-71
2023/04/05 03:17:57;;;;;;;1.90;1.90;;;17.70;62.60;;;;;;5081340;27;43965;-71
2023/04/05 03:20:25;;;;;;;1.83;1.83;;;17.70;62.60;;;;;;5078625;27;43418;-71
2023/04/05 03:23:00;;;;;;;1.70;1.70;;;17.70;62.70;;;;;;5075015;27;44417;-71
2023/04/05 03:25:33;;;;;;;1.83;1.83;;;17.60;62.70;;;;;;5084312;27;43433;-72
2023/04/05 03:28:04;;;;;;;1.80;1.80;;;17.60;62.80;;;;;;5085579;27;43428;-73
2023/04/05 03:30:33;;;;;;;1.83;1.83;;;17.50;62.90;;;;;;5106037;27;43554;-71
2023/04/05 03:33:12;;;;;;;1.80;1.80;;;17.50;63.00;;;;;;5081203;27;45722;-70
2023/04/05 03:35:44;;;;;;;1.67;1.67;;;17.50;62.90;;;;;;5084458;27;44090;-70
2023/04/05 03:38:13;;;;;;;1.60;1.60;;;17.50;62.90;;;;;;5083071;27;43471;-70
2023/04/05 03:40:50;;;;;;;1.73;1.73;;;17.50;63.00;;;;;;5086278;27;43531;-71
2023/04/05 03:43:18;;;;;;;1.70;1.70;;;17.50;63.10;;;;;;5089763;27;45910;-71
2023/04/05 03:45:47;;;;;;;1.70;1.70;;;17.50;63.20;;;;;;5086880;27;43993;-71
2023/04/05 03:48:18;;;;;;;1.77;1.77;;;17.50;63.20;;;;;;5102211;27;43467;-70
2023/04/05 03:50:48;;;;;;;1.80;1.80;;;17.50;62.90;;;;;;5081705;27;43525;-71
2023/04/05 03:53:17;;;;;;;1.97;1.97;;;17.50;62.90;;;;;;5088829;27;44321;-72
2023/04/05 03:55:53;;;;;;;1.90;1.90;;;17.50;63.10;;;;;;5089969;27;43517;-71
2023/04/05 03:58:30;;;;;;;1.70;1.70;;;17.60;63.20;;;;;;5084452;27;43399;-70
2023/04/05 04:00:59;;;;;;;1.60;1.60;;;17.50;63.10;;;;;;5088658;27;43462;-71
2023/04/05 04:03:27;;;;;;;1.80;1.80;;;17.50;63.00;;;;;;5086711;27;45997;-72
2023/04/05 04:05:55;;;;;;;1.57;1.57;;;17.60;63.10;;;;;;5075296;27;45180;-72
2023/04/05 04:08:23;;;;;;;1.80;1.80;;;17.70;62.80;;;;;;5106041;27;43410;-72
2023/04/05 04:10:53;;;;;;;1.80;1.80;;;17.80;62.50;;;;;;5105907;27;43458;-70
2023/04/05 04:13:27;;;;;;;1.70;1.70;;;17.90;62.00;;;;;;5078992;27;45007;-70
2023/04/05 04:16:11;;;;;;;1.60;1.60;;;17.80;61.90;;;;;;5083144;27;44528;-71
2023/04/05 04:18:53;;;;;;;1.70;1.70;;;17.80;62.10;;;;;;5078063;27;44011;-70
2023/04/05 04:21:23;;;;;;;1.80;1.80;;;17.80;62.20;;;;;;5108549;27;43796;-71
2023/04/05 04:24:15;;;;;;;1.70;1.70;;;17.80;62.10;;;;;;5086689;27;45448;-71
2023/04/05 04:27:15;;;;;;;2.00;2.00;;;17.80;62.40;;;;;;5079262;27;44621;-70
2023/04/05 04:30:03;;;;;;;1.83;1.83;;;17.70;62.40;;;;;;5097312;27;43466;-71
2023/04/05 04:35:38;;;;;;;1.80;1.80;;;17.60;62.60;;;;;;5092675;27;43706;-70
2023/04/05 04:38:19;;;;;;;1.80;1.80;;;17.60;62.50;;;;;;5100821;27;43957;-70
2023/04/05 04:41:10;;;;;;;1.80;1.80;;;17.60;62.70;;;;;;5098720;27;44098;-70
2023/04/05 04:44:04;;;;;;;1.70;1.70;;;17.60;62.90;;;;;;5087705;27;43644;-72
2023/04/05 04:46:42;;;;;;;1.90;1.90;;;17.60;62.90;;;;;;5082055;28;43969;-70
2023/04/05 04:49:27;;;;;;;2.00;2.00;;;17.50;62.90;;;;;;5082263;27;44926;-70
2023/04/05 04:51:57;;;;;;;1.70;1.70;;;17.60;62.90;;;;;;5097441;27;43390;-71
2023/04/05 04:54:27;;;;;;;1.70;1.70;;;17.70;62.70;;;;;;5095001;27;43424;-70
2023/04/05 04:56:56;;;;;;;1.60;1.60;;;17.70;62.40;;;;;;5090689;27;44243;-71
2023/04/05 04:59:25;;;;;;;1.80;1.80;;;17.70;62.60;;;;;;5090288;27;44185;-71
2023/04/05 05:01:53;;;;;;;1.70;1.70;;;17.60;62.60;;;;;;5105642;27;43405;-70
2023/04/05 05:04:21;;;;;;;1.70;1.70;;;17.60;62.70;;;;;;5088034;27;43412;-71
2023/04/05 05:06:50;;;;;;;1.50;1.50;;;17.60;62.50;;;;;;5079465;27;45616;-71
2023/04/05 05:09:18;;;;;;;1.80;1.80;;;17.60;62.60;;;;;;5096360;27;43503;-70
2023/04/05 05:11:51;;;;;;;1.57;1.57;;;17.60;62.80;;;;;;5072891;27;43428;-72
2023/04/05 05:14:18;;;;;;;1.70;1.70;;;17.60;62.80;;;;;;5103298;27;43581;-71
2023/04/05 05:16:48;;;;;;;1.80;1.80;;;17.50;62.90;;;;;;5104656;27;43600;-69
2023/04/05 05:19:18;;;;;;;1.70;1.70;;;17.50;63.00;;;;;;5082135;27;43477;-70
2023/04/05 05:21:52;;;;;;;1.83;1.83;;;17.50;62.90;;;;;;5082696;27;43439;-70
2023/04/05 05:24:20;;;;;;;1.60;1.60;;;17.60;62.70;;;;;;5102642;27;44069;-71
2023/04/05 05:26:48;;;;;;;1.63;1.63;;;17.70;62.30;;;;;;5103475;27;43905;-71
2023/04/05 05:29:19;;;;;;;1.50;1.50;;;17.70;62.20;;;;;;5086406;27;44379;-72
2023/04/05 05:31:48;;;;;;;2.07;2.07;;;17.70;62.40;;;;;;5088204;27;43365;-70
2023/04/05 05:34:18;;;;;;;1.80;1.70;;;17.70;62.40;;;;;;5100150;27;43465;-70
2023/04/05 05:36:56;;;;;;;1.60;1.60;;;17.70;62.20;;;;;;5076757;27;45778;-71
2023/04/05 05:39:24;;;;;;;1.50;1.50;;;17.70;62.30;;;;;;5105454;27;44719;-71
2023/04/05 05:41:52;;;;;;;1.87;1.87;;;17.70;62.50;;;;;;5079190;27;43442;-72
2023/04/05 05:44:20;;;;;;;1.80;1.80;;;17.70;62.60;;;;;;5097821;27;43542;-72
2023/04/05 05:46:49;;;;;;;1.67;1.67;;;17.60;62.50;;;;;;5101416;27;44188;-70
2023/04/05 05:49:17;;;;;;;1.70;1.70;;;17.60;63.30;;;;;;5100849;27;43469;-69
2023/04/05 05:51:45;;;;;;;1.90;1.90;;;17.60;62.40;;;;;;5099316;27;43335;-70
2023/04/05 05:54:13;;;;;;;1.60;1.60;;;17.60;62.50;;;;;;5096240;27;43427;-70
2023/04/05 05:56:41;;;;;;;1.50;1.50;;;17.60;62.50;;;;;;5079804;27;46224;-70
2023/04/05 05:59:09;;;;;;;1.50;1.50;;;17.60;62.50;;;;;;5098626;27;43957;-70
2023/04/05 06:06:04;;;;;;;1.50;1.50;;;17.60;62.70;;;;;;5060260;27;44229;-70
2023/04/05 06:08:32;;;;;;;1.70;1.70;;;17.60;62.50;;;;;;5099991;27;43678;-71
2023/04/05 06:11:00;;;;;;;1.70;1.70;;;17.70;62.00;;;;;;5095337;27;43805;-69
2023/04/05 06:13:28;;;;;;;1.70;1.70;;;17.70;62.00;;;;;;5094756;27;43387;-70
2023/04/05 06:15:56;;;;;;;1.60;1.60;;;17.70;62.10;;;;;;5099266;27;43434;-70
2023/04/05 06:18:24;;;;;;;1.70;1.70;;;17.70;62.30;;;;;;5102137;27;44055;-71
2023/04/05 06:20:52;;;;;;;1.60;1.60;;;17.70;62.30;;;;;;5085481;27;43485;-70
2023/04/05 06:23:21;;;;;;;1.60;1.60;;;17.60;62.20;;;;;;5100989;27;43311;-72
2023/04/05 06:25:49;;;;;;;1.70;1.70;;;17.60;62.40;;;;;;5101631;27;43888;-70
2023/04/05 06:28:17;;;;;;;1.80;1.80;;;17.60;62.50;;;;;;5098345;27;43900;-70
2023/04/05 06:30:45;;;;;;;2.13;2.13;;;17.60;62.60;;;;;;5087275;27;45406;-69
2023/04/05 06:33:13;;;;;;;1.80;1.80;;;17.50;62.60;;;;;;5102375;27;43372;-71
2023/04/05 06:35:40;;;;;;;1.73;1.73;;;17.50;63.30;;;;;;5097066;27;43521;-70
2023/04/05 06:38:09;;;;;;;1.73;1.73;;;17.50;62.70;;;;;;5081888;27;46092;-70
2023/04/05 06:40:38;;;;;;;1.60;1.60;;;17.50;62.70;;;;;;5102358;27;43454;-71
2023/04/05 06:43:06;;;;;;;1.50;1.50;;;17.50;62.80;;;;;;5091919;27;43578;-71
2023/04/05 06:45:34;;;;;;;1.60;1.60;;;17.50;62.90;;;;;;5078782;27;43614;-70
2023/04/05 06:48:02;;;;;;;1.70;1.70;;;17.50;62.90;;;;;;5097718;27;44028;-71
2023/04/05 06:50:30;;;;;;;1.70;1.70;;;17.50;63.00;;;;;;5099006;27;43406;-69
2023/04/05 06:52:58;;;;;;;1.60;1.60;;;17.60;62.80;;;;;;5095128;27;43434;-70
2023/04/05 06:55:26;;;;;;;1.80;1.80;;;17.60;62.30;;;;;;5098624;27;43458;-70
2023/04/05 06:57:55;;;;;;;1.77;1.77;;;17.60;62.20;;;;;;5102520;27;43777;-70
2023/04/05 07:00:24;;;;;;;2.10;1.93;;;17.60;62.40;;;;;;5100956;27;43992;-69
2023/04/05 07:02:52;;;;;;;1.77;1.77;;;17.60;62.50;;;;;;5092204;27;43415;-71
2023/04/05 07:05:20;;;;;;;1.50;1.50;;;17.60;63.30;;;;;;5092821;27;43364;-71
2023/04/05 07:07:48;;;;;;;1.70;1.70;;;17.60;62.40;;;;;;5099533;27;43615;-69
2023/04/05 07:10:16;;;;;;;1.70;1.70;;;17.60;62.50;;;;;;5101801;27;43410;-71
2023/04/05 07:12:45;;;;;;;1.60;1.60;;;17.60;62.60;;;;;;5097113;27;43434;-71
2023/04/05 07:15:15;;;;;;;1.70;1.70;;;17.60;62.70;;;;;;5102533;27;43396;-71
2023/04/05 07:17:43;;;;;;;1.50;1.50;;;17.50;62.60;;;;;;5100771;27;43916;-72
2023/04/05 07:20:11;;;;;;;1.77;1.77;;;17.50;62.70;;;;;;5091130;27;45086;-71
2023/04/05 07:22:40;;;;;;;1.70;1.70;;;17.60;62.60;;;;;;5092142;27;43903;-71
2023/04/05 07:25:09;;;;;;;1.90;1.90;;;17.70;62.30;;;;;;5101632;27;44031;-71
2023/04/05 07:27:38;;;;;;;1.50;1.50;;;17.70;62.00;;;;;;5101169;27;43567;-70
2023/04/05 07:30:07;;;;;;;1.80;1.80;;;17.70;62.10;;;;;;5091006;27;43420;-70
2023/04/05 07:32:37;;;;;;;1.80;1.70;;;17.70;62.30;;;;;;5096478;27;43355;-70
2023/04/05 07:35:06;;;;;;;1.60;1.60;;;17.60;62.30;;;;;;5097666;27;43535;-70
2023/04/05 07:37:34;;;;;;;1.60;1.60;;;17.60;62.30;;;;;;5102797;27;43897;-69
2023/04/05 07:40:02;;;;;;;1.70;1.70;;;17.60;62.40;;;;;;5106596;27;43403;-70
2023/04/05 07:42:30;;;;;;;1.37;1.37;;;17.60;62.50;;;;;;5105000;27;43484;-71
2023/04/05 07:44:58;;;;;;;1.63;1.63;;;17.60;62.70;;;;;;5101092;27;43547;-72
2023/04/05 07:47:27;;;;;;;1.87;1.87;;;17.50;62.70;;;;;;5085023;28;45790;-70
2023/04/05 07:49:56;;;;;;;1.60;1.60;;;17.50;62.80;;;;;;5094856;27;43318;-71
2023/04/05 07:52:24;;;;;;;1.70;1.70;;;17.50;62.70;;;;;;5093521;27;44106;-71
2023/04/05 07:54:53;;;;;;;1.50;1.50;;;17.50;62.90;;;;;;5100351;27;43408;-71
2023/04/05 07:57:21;;;;;;;1.50;1.50;;;17.50;62.70;;;;;;5104557;27;43938;-71
2023/04/05 07:59:51;;;;;;;1.57;1.57;;;17.50;62.80;;;;;;5104086;27;43406;-71
2023/04/05 08:02:19;;;;;;;1.60;1.60;;;17.50;62.90;;;;;;5102465;27;43485;-71
2023/04/05 08:04:47;;;;;;;1.50;1.50;;;17.40;62.80;;;;;;5086330;27;43577;-71
2023/04/05 08:07:16;;;;;;;1.60;1.60;;;17.40;62.90;;;;;;5100768;27;43595;-72
2023/04/05 08:09:44;;;;;;;1.70;1.70;;;17.40;63.00;;;;;;5082923;27;44502;-70
2023/04/05 08:12:12;;;;;;;2.00;1.93;;;17.40;63.00;;;;;;5103423;27;43399;-72
2023/04/05 08:14:40;;;;;;;1.70;1.70;;;17.40;63.00;;;;;;5098662;27;43488;-72
2023/04/05 08:17:08;;;;;;;2.20;2.00;;;17.40;63.00;;;;;;5102995;27;43849;-70
2023/04/05 08:19:36;;;;;;;3.53;2.40;;;17.40;63.00;;;;;;5094270;27;43686;-71
2023/04/05 08:22:04;;;;;;;3.00;2.63;;;17.40;63.00;;;;;;5100490;27;44014;-71
2023/04/05 08:24:33;;;;;;;4.17;2.80;;;17.50;62.80;;;;;;5107343;27;43458;-70
2023/04/05 08:27:01;;;;;;;3.00;2.70;;;17.70;62.60;;;;;;5099351;27;43856;-71
2023/04/05 08:29:29;;;;;;;5.50;2.90;;;17.80;62.20;;;;;;5091393;27;43490;-71
2023/04/05 08:31:58;;;;;;;3.67;3.10;;;18.00;61.80;;;;;;5097337;27;43972;-70
2023/04/05 08:34:26;;;;;;;6.57;3.43;;;18.10;61.40;;;;;;5090946;27;43491;-71
2023/04/05 08:36:56;;;;;;;6.53;3.87;;;18.30;61.10;;;;;;5086216;27;43936;-70
2023/04/05 08:39:25;;;;;;;4.47;3.53;;;18.40;60.70;;;;;;5101532;27;43455;-70
2023/04/05 08:42:01;;;;;;;4.93;3.27;;;18.50;60.30;;;;;;5092702;27;44352;-71
2023/04/05 08:44:30;;;;;;;6.90;3.97;;;18.60;60.00;;;;;;5082654;27;43502;-71
2023/04/05 08:46:58;;;;;;;5.57;3.83;;;18.70;59.90;;;;;;5088815;27;46254;-72
2023/04/05 08:49:27;;;;;;;5.30;3.90;;;18.70;59.90;;;;;;5108134;27;43509;-72
2023/04/05 08:51:55;;;;;;;5.50;3.70;;;18.60;59.80;;;;;;5105335;27;43387;-73
2023/04/05 08:54:23;;;;;;;5.50;3.63;;;18.40;59.90;;;;;;5099129;27;43403;-72
2023/04/05 08:56:53;;;;;;;5.73;3.77;;;18.30;60.40;;;;;;5092671;27;43928;-71
2023/04/05 08:59:22;;;;;;;5.67;3.93;;;18.10;60.90;;;;;;5087980;27;45028;-71
2023/04/05 09:01:51;;;;;;;5.73;3.70;;;18.00;61.40;;;;;;5108463;27;43420;-70
2023/04/05 09:04:22;;;;;;;5.33;3.73;;;18.00;61.40;;;;;;5095434;27;44097;-70
2023/04/05 09:06:50;;;;;;;4.47;3.13;;;17.90;61.50;;;;;;5104495;27;43960;-70
2023/04/05 09:09:18;;;;;;;3.50;3.20;;;17.80;61.60;;;;;;5091110;27;43777;-71
2023/04/05 09:11:46;;;;;;;5.50;3.50;;;17.80;61.90;;;;;;5102553;27;43426;-70
2023/04/05 09:14:14;;;;;;;8.53;3.90;;;17.70;62.20;;;;;;5096107;27;43435;-71
2023/04/05 09:16:43;;;;;;;4.77;3.43;;;17.70;62.40;;;;;;5104245;27;43951;-70
2023/04/05 09:19:11;;;;;;;7.30;3.80;;;17.80;62.30;;;;;;5085285;27;44449;-71
2023/04/05 09:21:58;;;;;;;5.57;3.40;;;17.90;62.10;;;;;;5089048;27;43922;-70
2023/04/05 09:24:33;;;;;;;3.73;3.30;;;17.90;61.70;;;;;;5096039;27;44039;-70
2023/04/05 09:27:06;;;;;;;3.90;3.37;;;17.80;61.60;;;;;;5089269;27;43806;-71
2023/04/05 09:29:34;;;;;;;3.97;3.57;;;17.80;62.10;;;;;;5081052;27;44821;-71
2023/04/05 09:32:06;;;;;;;3.20;3.00;;;17.80;62.00;;;;;;5086569;27;43640;-70
2023/04/05 09:34:35;;;;;;;4.80;3.43;;;17.80;61.90;;;;;;5099294;27;43420;-71
2023/04/05 09:37:03;;;;;;;3.73;3.53;;;17.70;62.00;;;;;;5079909;27;46005;-71
2023/04/05 09:39:35;;;;;;;4.30;3.07;;;17.70;62.10;;;;;;5098326;27;43332;-71
2023/04/05 09:42:07;;;;;;;5.13;3.57;;;17.70;62.20;;;;;;5094905;27;43437;-70
2023/04/05 09:44:52;;;;;;;4.57;3.40;;;17.70;62.30;;;;;;5089001;27;43548;-70
2023/04/05 09:47:23;;;;;;;3.00;2.80;;;17.70;62.40;;;;;;5100406;27;45172;-70
2023/04/05 09:49:56;;;;;;;5.40;3.27;;;17.70;62.40;;;;;;5085549;27;44857;-71
2023/04/05 09:52:24;;;;;;;3.10;2.90;;;17.60;62.30;;;;;;5097571;27;43346;-71
2023/04/05 09:54:56;;;;;;;3.67;3.37;;;17.60;62.30;;;;;;5100290;27;43451;-70
2023/04/05 09:57:28;;;;;;;3.30;3.10;;;17.60;62.50;;;;;;5102933;27;45118;-71
2023/04/05 09:59:56;;;;;;;3.27;2.97;;;17.60;62.40;;;;;;5088356;27;43872;-72
2023/04/05 10:02:25;;;;;;;3.40;3.10;;;17.60;62.50;;;;;;5098078;27;43362;-72
2023/04/05 10:04:54;;;;;;;3.30;3.00;;;17.60;63.20;;;;;;5096415;27;43897;-71
2023/04/05 10:07:24;;;;;;;3.50;3.20;;;17.60;62.60;;;;;;5092986;27;43746;-70
2023/04/05 10:09:52;;;;;;;3.90;3.40;;;17.60;62.60;;;;;;5082254;27;44272;-70
2023/04/05 10:12:24;;;;;;;3.33;3.07;;;17.50;62.60;;;;;;5085476;27;43973;-70
2023/04/05 10:14:52;;;;;;;3.20;2.90;;;17.60;62.60;;;;;;5087436;27;43586;-71
2023/04/05 10:17:24;;;;;;;5.90;2.87;;;17.70;62.60;;;;;;5095816;27;43944;-71
2023/04/05 10:20:01;;;;;;;5.67;3.13;;;17.80;62.30;;;;;;5079427;27;44094;-70
2023/04/05 10:22:33;;;;;;;7.20;3.10;;;17.80;62.00;;;;;;5097337;27;43431;-70
2023/04/05 10:25:05;;;;;;;8.63;3.27;;;17.80;62.20;;;;;;5096682;27;43965;-71
2023/04/05 10:27:35;;;;;;;7.40;3.10;;;17.70;62.30;;;;;;5096895;27;44813;-71
2023/04/05 10:30:05;;;;;;;3.50;3.20;;;17.70;62.30;;;;;;5097799;27;43574;-69
2023/04/05 10:32:43;;;;;;;4.70;2.77;;;17.70;62.40;;;;;;5100115;27;43825;-71
2023/04/05 10:35:16;;;;;;;3.47;3.00;;;17.70;62.60;;;;;;5090509;27;43618;-71
2023/04/05 10:37:52;;;;;;;3.53;2.70;;;17.70;62.60;;;;;;5090322;27;43868;-72
2023/04/05 10:40:20;;;;;;;3.70;3.00;;;17.70;62.70;;;;;;5103516;27;43407;-71
2023/04/05 10:42:48;;;;;;;3.30;2.97;;;17.60;62.70;;;;;;5095541;27;43404;-71
2023/04/05 10:45:18;;;;;;;3.37;3.10;;;17.60;62.90;;;;;;5102025;27;43387;-71
2023/04/05 10:47:49;;;;;;;5.63;3.00;;;17.60;62.90;;;;;;5076256;27;45393;-70
2023/04/05 10:50:21;;;;;;;3.00;2.80;;;17.60;62.90;;;;;;5104332;27;43347;-70
2023/04/05 10:52:50;;;;;;;4.63;2.83;;;17.60;63.00;;;;;;5107283;27;43464;-71
2023/04/05 10:55:18;;;;;;;10.10;3.13;;;17.60;62.70;;;;;;5100936;27;43460;-71
2023/04/05 10:57:47;;;;;;;7.33;3.50;;;17.50;62.30;;;;;;5096477;27;44315;-70
2023/04/05 11:00:16;;;;;;;3.83;3.50;;;17.60;62.20;;;;;;5107014;27;43356;-70
2023/04/05 11:02:46;;;;;;;5.43;3.33;;;17.70;62.00;;;;;;5098152;27;43422;-70
2023/04/05 11:05:31;;;;;;;7.97;3.70;;;17.70;61.70;;;;;;5074480;27;43454;-71
2023/04/05 11:08:02;;;;;;;5.27;3.57;;;17.80;62.00;;;;;;5104525;27;43677;-71
2023/04/05 11:10:31;;;;;;;6.57;3.40;;;17.70;62.00;;;;;;5103086;27;43513;-72
2023/04/05 11:13:09;;;;;;;5.90;3.53;;;17.70;62.00;;;;;;5106564;27;43434;-70
2023/04/05 11:15:38;;;;;;;3.47;3.27;;;17.70;62.00;;;;;;5095057;27;43363;-70
2023/04/05 11:18:10;;;;;;;3.50;3.20;;;17.70;62.30;;;;;;5090243;27;45804;-71
2023/04/05 11:20:45;;;;;;;3.30;3.00;;;17.70;63.10;;;;;;5080198;27;45049;-70
2023/04/05 11:23:14;;;;;;;3.70;3.10;;;17.70;62.50;;;;;;5104708;27;43913;-70
2023/04/05 11:25:46;;;;;;;3.47;3.10;;;17.60;62.50;;;;;;5108867;27;43526;-71
2023/04/05 11:28:24;;;;;;;2.93;2.73;;;17.60;62.50;;;;;;5104146;27;43898;-70
2023/04/05 11:30:55;;;;;;;3.33;3.03;;;17.60;62.60;;;;;;5097708;27;43530;-71
2023/04/05 11:33:53;;;;;;;3.03;2.83;;;17.60;62.60;;;;;;5100508;27;43332;-71
2023/04/05 11:36:33;;;;;;;2.83;2.63;;;17.60;62.60;;;;;;5102475;27;43400;-69
2023/04/05 11:39:23;;;;;;;3.47;3.17;;;17.60;62.70;;;;;;5107228;27;44770;-70
2023/04/05 11:42:05;;;;;;;3.17;2.97;;;17.60;62.60;;;;;;5090367;27;44215;-70
2023/04/05 11:44:44;;;;;;;3.00;2.80;;;17.60;62.70;;;;;;5068605;27;43505;-70
2023/04/05 11:47:12;;;;;;;5.87;2.90;;;17.60;62.70;;;;;;5099018;27;43390;-70
2023/04/05 11:49:41;;;;;;;2.93;2.73;;;17.60;62.70;;;;;;5094934;27;43917;-70
2023/04/05 11:52:14;;;;;;;3.33;3.07;;;17.60;62.70;;;;;;5099171;27;43462;-71
2023/04/05 11:54:45;;;;;;;2.63;2.53;;;17.60;62.60;;;;;;5099743;27;43493;-71
2023/04/05 11:57:16;;;;;;;2.80;2.60;;;17.60;62.60;;;;;;5095251;27;43427;-70
2023/04/05 11:59:44;;;;;;;3.30;3.00;;;17.60;62.40;;;;;;5094628;27;44342;-71
2023/04/05 12:02:12;;;;;;;3.03;2.80;;;17.70;62.30;;;;;;5094739;27;43463;-71
2023/04/05 12:04:40;;;;;;;2.83;2.63;;;17.80;62.00;;;;;;5103817;27;43928;-69
2023/04/05 12:07:09;;;;;;;3.00;2.80;;;17.80;62.10;;;;;;5089594;27;43882;-70
2023/04/05 12:09:53;;;;;;;3.10;2.90;;;17.80;62.20;;;;;;5102766;27;43843;-71
2023/04/05 12:12:21;;;;;;;2.97;2.70;;;17.80;62.20;;;;;;5087582;27;44066;-70
2023/04/05 12:15:00;;;;;;;2.80;2.70;;;17.80;62.30;;;;;;5096644;27;43486;-70
2023/04/05 12:17:42;;;;;;;2.57;2.53;;;17.70;62.30;;;;;;5097601;27;43372;-72
2023/04/05 12:20:10;;;;;;;2.53;2.40;;;17.70;62.50;;;;;;5095885;27;43620;-71
2023/04/05 12:22:38;;;;;;;2.53;2.43;;;17.70;62.70;;;;;;5086717;27;44787;-71
2023/04/05 12:25:09;;;;;;;2.63;2.53;;;17.60;62.70;;;;;;5090160;27;43517;-71
2023/04/05 12:27:37;;;;;;;2.70;2.60;;;17.60;62.70;;;;;;5106310;27;43545;-70
2023/04/05 12:30:14;;;;;;;2.37;2.23;;;17.60;62.80;;;;;;5100679;27;44031;-71
2023/04/05 12:32:46;;;;;;;2.17;2.13;;;17.60;62.90;;;;;;5105203;27;43481;-71
2023/04/05 12:35:16;;;;;;;2.63;2.43;;;17.60;62.90;;;;;;5098675;27;43768;-71
2023/04/05 12:37:44;;;;;;;2.70;2.53;;;17.60;63.00;;;;;;5094396;27;43509;-71
2023/04/05 12:40:13;;;;;;;2.90;2.67;;;17.60;62.90;;;;;;5077494;27;45715;-70
2023/04/05 12:42:41;;;;;;;2.70;2.60;;;17.60;62.90;;;;;;5076528;27;44732;-70
2023/04/05 12:45:13;;;;;;;2.47;2.37;;;17.60;62.60;;;;;;5096660;27;43510;-70
2023/04/05 12:47:51;;;;;;;2.60;2.50;;;17.70;62.80;;;;;;5099082;27;43442;-71
2023/04/05 12:50:19;;;;;;;2.50;2.30;;;17.60;62.70;;;;;;5107186;27;43603;-69
2023/04/05 12:52:54;;;;;;;3.43;2.40;;;17.70;62.80;;;;;;5096906;27;43998;-71
2023/04/05 12:55:24;;;;;;;3.67;2.80;;;17.60;62.70;;;;;;5105727;27;43379;-70
2023/04/05 12:57:53;;;;;;;2.20;2.20;;;17.70;62.80;;;;;;5090180;27;43938;-71
2023/04/05 13:00:23;;;;;;;2.40;2.30;;;17.60;62.70;;;;;;5097346;27;43738;-71
2023/04/05 13:02:52;;;;;;;2.63;2.50;;;17.60;62.80;;;;;;5102469;27;43444;-70
2023/04/05 13:05:21;;;;;;;2.23;2.13;;;17.70;62.90;;;;;;5095358;27;43926;-70
2023/04/05 13:07:49;;;;;;;2.40;2.30;;;17.60;62.90;;;;;;5087251;27;43582;-71
2023/04/05 13:10:18;;;;;;;2.60;2.10;;;17.60;62.90;;;;;;5094555;27;43958;-69
2023/04/05 13:12:47;;;;;;;2.60;2.43;;;17.60;62.60;;;;;;5083006;28;44825;-70
2023/04/05 13:15:15;;;;;;;2.53;2.43;;;17.70;62.50;;;;;;5092259;27;43523;-71